Bradley International Airport
KBDL : now visible

Airfield :











YOU CAN JOIN US ON...

 
LOGIN :

Register | Disclaimer

   EN    FR    IT 

 









Legend :    VFR   Marginal VFR   IFR   Intensive IFR   Very Intensive IFR
Visi :
Ceiling :
>= 8 km
>= 3000ft
5 to 8 km
1000 to 3000 ft
1500m to 5 km
500 to 1000 ft
800 to 1500m
200 to 500 ft
< 800m
< 200 ft
Symbols :   Thunderstorms  Fog  Heavy snow  Heavy precipitations  Wind > 20 kt






- Airport Elevation : 173 ft
- IATA code : BDL


KBDL - Bradley International

CURRENT METAR :
  • 241151Z 21004KT 10SM CLR M02/M05 A3004 RMK AO2 SLP175 T10221050 10017 21033 53001

EXPIRED METARs :
  • 241051Z 19005KT 10SM CLR M01/M04 A3004 RMK AO2 SLP174 T10111044
  • 240951Z 00000KT 10SM CLR M02/M05 A3004 RMK AO2 SLP174 T10221050

TAF KBDL
Valid from the 24 at 12:00 until the 25 at 18:00 UTC


241134Z 2412/2518 19005KT P6SM SKC
FM250200 16003KT P6SM OVC120
FM251100 00000KT P6SM OVC045
FM251200 00000KT P6SM SCT020 OVC040



MET'MAP, your aeronautical weather chart ! - Copyright ORBIFLY December 2007 - Disclaimer

ORBIFLY MET'MAP TEAM :

Programming & Development : Alexandra Zaïnal
Concept & original design : Baudouin d'Aumeries
Assistance for programming : Marc-Olivier Méhu
Technical & hardware support : Manuel Goepfert

Contact : metmap@orbifly.com




SOURCES & CREDITS :

   NOAA       Earth
Advisory